Terminal Aerodrome Forecast
Issued by NWS Wilmington, OH

Home | Current Version | Previous Version | Text Only | Print | Product List | Glossary On
Versions: 1 2 3 4 5 6 7 8 9 10 11 12 13 14 15 16 17 18 19 20 21 22 23
000
FTUS41 KILN 012300
TAFILN
TAF
KILN 012336Z 0200/0224 VRB05KT P6SM SKC
     FM020900 VRB03KT 2SM BR SKC
     FM021200 16006KT P6SM SCT060 BKN250
     FM021500 19009G16KT P6SM SCT060 BKN250
     FM022200 16007KT P6SM SCT050 BKN250=

USA.gov is the U.S. government's official web portal to all federal, state and local government web resources and services.